Time,TemperatureF,DewpointF,PressureIn,WindDirection,WindDirectionDegrees,WindSpeedMPH,WindSpeedGustMPH,Humidity,HourlyPrecipIn,Conditions,Clouds,dailyrainin,SoftwareType,DateUTC
2013-01-22 00:02:00,-999.0,-99.9,-100.00,West,265,9.0,14.0,-999,-99.99,,,-99.99,,2013-01-22 06:02:00,
2013-01-22 00:12:00,-999.0,-99.9,30.21,West,265,9.0,14.0,-999,-99.99,,,-99.99,,2013-01-22 06:12:00,
2013-01-22 00:33:00,-7.0,-99.9,30.21,West,274,11.0,18.0,-999,-99.99,,,-99.99,,2013-01-22 06:33:00,
2013-01-22 01:03:00,-7.0,-99.9,30.21,West,269,12.0,19.0,-999,-99.99,,,-99.99,,2013-01-22 07:03:00,
2013-01-22 01:33:00,-999.0,-99.9,-100.00,West,269,11.0,19.0,-999,-99.99,,,-99.99,,2013-01-22 07:33:00,
2013-01-22 01:43:00,-999.0,-99.9,30.22,West,269,11.0,19.0,-999,-99.99,,,-99.99,,2013-01-22 07:43:00,
2013-01-22 02:02:00,-7.0,-99.9,30.22,West,275,13.0,19.0,-999,-99.99,,,-99.99,,2013-01-22 08:02:00,
2013-01-22 02:33:00,-7.0,-99.9,30.24,West,270,8.0,15.0,-999,-99.99,,,-99.99,,2013-01-22 08:33:00,
2013-01-22 03:02:00,-999.0,-99.9,-100.00,West,273,13.0,16.0,-999,-99.99,,,-99.99,,2013-01-22 09:02:00,
2013-01-22 03:12:00,-999.0,-99.9,30.24,West,273,13.0,16.0,-999,-99.99,,,-99.99,,2013-01-22 09:12:00,
2013-01-22 03:33:00,-999.0,-99.9,-100.00,West,260,11.0,17.0,-999,-99.99,,,-99.99,,2013-01-22 09:33:00,
2013-01-22 03:43:00,-999.0,-99.9,30.24,West,260,11.0,17.0,-999,-99.99,,,-99.99,,2013-01-22 09:43:00,
2013-01-22 04:33:00,-999.0,-99.9,-100.00,West,267,13.0,17.0,-999,-99.99,,,-99.99,,2013-01-22 10:33:00,
2013-01-22 04:43:00,-999.0,-99.9,30.25,West,267,13.0,17.0,-999,-99.99,,,-99.99,,2013-01-22 10:43:00,
2013-01-22 05:03:00,-999.0,-99.9,-100.00,West,267,13.0,18.0,-999,-99.99,,,-99.99,,2013-01-22 11:03:00,
2013-01-22 05:12:00,-999.0,-99.9,30.25,West,267,13.0,18.0,-999,-99.99,,,-99.99,,2013-01-22 11:12:00,
2013-01-22 05:33:00,-8.0,-99.9,30.25,West,278,9.0,13.0,-999,-99.99,,,-99.99,,2013-01-22 11:33:00,
2013-01-22 06:04:00,-8.0,-99.9,30.25,West,279,9.0,16.0,-999,-99.99,,,-99.99,,2013-01-22 12:04:00,
2013-01-22 06:43:00,-999.0,-99.9,30.27,West,271,9.0,13.0,-999,-99.99,,,-99.99,,2013-01-22 12:43:00,
2013-01-22 07:04:00,-8.0,-99.9,30.27,West,277,9.0,15.0,-999,-99.99,,,-99.99,,2013-01-22 13:04:00,
2013-01-22 07:43:00,-999.0,-99.9,-100.00,West,270,11.0,13.0,-999,-99.99,,,-99.99,,2013-01-22 13:43:00,
2013-01-22 07:54:00,-999.0,-99.9,30.27,West,270,11.0,13.0,-999,-99.99,,,-99.99,,2013-01-22 13:54:00,
2013-01-22 08:13:00,-999.0,-99.9,-100.00,West,275,11.0,15.0,-999,-99.99,,,-99.99,,2013-01-22 14:13:00,
2013-01-22 08:23:00,-999.0,-99.9,30.28,West,275,11.0,15.0,-999,-99.99,,,-99.99,,2013-01-22 14:23:00,
2013-01-22 08:34:00,-8.0,-99.9,30.28,West,278,11.0,15.0,-999,-99.99,,,-99.99,,2013-01-22 14:34:00,
2013-01-22 09:34:00,-999.0,-99.9,-100.00,West,263,11.0,15.0,-999,-99.99,,,-99.99,,2013-01-22 15:34:00,
2013-01-22 09:44:00,-999.0,-99.9,-100.00,West,263,11.0,15.0,-999,-99.99,,,-99.99,,2013-01-22 15:44:00,
2013-01-22 10:04:00,-4.0,-99.9,30.29,West,270,11.0,15.0,-999,-99.99,,,-99.99,,2013-01-22 16:04:00,
2013-01-22 11:13:00,-999.0,-99.9,30.30,West,259,9.0,12.0,-999,-99.99,,,-99.99,,2013-01-22 17:13:00,
2013-01-22 12:34:00,-999.0,-99.9,-100.00,West,267,11.0,17.0,-999,-99.99,,,-99.99,,2013-01-22 18:34:00,
2013-01-22 12:44:00,-999.0,-99.9,30.29,West,267,11.0,17.0,-999,-99.99,,,-99.99,,2013-01-22 18:44:00,
2013-01-22 13:04:00,2.0,-99.9,30.27,West,276,6.0,13.0,-999,-99.99,,,-99.99,,2013-01-22 19:04:00,
2013-01-22 14:04:00,-999.0,-99.9,-100.00,West,281,12.0,16.0,-999,-99.99,,,-99.99,,2013-01-22 20:04:00,
2013-01-22 14:13:00,-999.0,-99.9,30.27,West,281,12.0,16.0,-999,-99.99,,,-99.99,,2013-01-22 20:13:00,
2013-01-22 14:34:00,2.0,-99.9,30.27,NW,323,9.0,17.0,-999,-99.99,,,-99.99,,2013-01-22 20:34:00,
2013-01-22 15:04:00,4.0,-99.9,30.27,West,263,10.0,16.0,-999,-99.99,,,-99.99,,2013-01-22 21:04:00,
2013-01-22 15:34:00,-999.0,-99.9,-100.00,WSW,241,8.0,11.0,-999,-99.99,,,-99.99,,2013-01-22 21:34:00,
2013-01-22 15:44:00,-999.0,-99.9,30.28,WSW,241,8.0,11.0,-999,-99.99,,,-99.99,,2013-01-22 21:44:00,
2013-01-22 16:33:00,-999.0,-99.9,-100.00,West,275,10.0,14.0,-999,-99.99,,,-99.99,,2013-01-22 22:33:00,
2013-01-22 16:44:00,-999.0,-99.9,30.27,West,275,10.0,14.0,-999,-99.99,,,-99.99,,2013-01-22 22:44:00,
2013-01-22 17:03:00,4.0,-99.9,30.28,WSW,238,9.0,13.0,-999,-99.99,,,-99.99,,2013-01-22 23:03:00,
2013-01-22 18:03:00,-999.0,-99.9,-100.00,WSW,249,9.0,13.0,-999,-99.99,,,-99.99,,2013-01-23 00:03:00,
2013-01-22 18:13:00,-999.0,-99.9,30.29,WSW,249,9.0,13.0,-999,-99.99,,,-99.99,,2013-01-23 00:13:00,
2013-01-22 18:33:00,4.0,-99.9,30.29,WSW,254,8.0,12.0,-999,-99.99,,,-99.99,,2013-01-23 00:33:00,
2013-01-22 19:03:00,4.0,-99.9,30.29,SW,222,6.0,10.0,-999,-99.99,,,-99.99,,2013-01-23 01:03:00,
2013-01-22 19:33:00,-999.0,-99.9,-100.00,SW,233,8.0,11.0,-999,-99.99,,,-99.99,,2013-01-23 01:33:00,
2013-01-22 19:43:00,-999.0,-99.9,30.29,SW,233,8.0,11.0,-999,-99.99,,,-99.99,,2013-01-23 01:43:00,
2013-01-22 20:03:00,3.0,-99.9,30.28,WSW,256,10.0,14.0,-999,-99.99,,,-99.99,,2013-01-23 02:03:00,
2013-01-22 20:33:00,2.0,-99.9,30.28,WSW,250,10.0,14.0,-999,-99.99,,,-99.99,,2013-01-23 02:33:00,
2013-01-22 21:03:00,-999.0,-99.9,-100.00,WSW,247,10.0,15.0,-999,-99.99,,,-99.99,,2013-01-23 03:03:00,
2013-01-22 21:13:00,-999.0,-99.9,30.27,WSW,247,10.0,15.0,-999,-99.99,,,-99.99,,2013-01-23 03:13:00,
2013-01-22 21:33:00,2.0,-99.9,30.27,WSW,239,10.0,14.0,-999,-99.99,,,-99.99,,2013-01-23 03:33:00,
2013-01-22 22:04:00,2.0,-99.9,30.28,SW,222,6.0,11.0,-999,-99.99,,,-99.99,,2013-01-23 04:04:00,
2013-01-22 22:33:00,-999.0,-99.9,-100.00,SW,218,7.0,10.0,-999,-99.99,,,-99.99,,2013-01-23 04:33:00,
2013-01-22 22:43:00,-999.0,-99.9,30.27,SW,218,7.0,10.0,-999,-99.99,,,-99.99,,2013-01-23 04:43:00,
2013-01-22 23:04:00,1.0,-99.9,30.26,SW,220,9.0,12.0,-999,-99.99,,,-99.99,,2013-01-23 05:04:00,
2013-01-22 23:33:00,1.0,-99.9,30.27,SW,222,10.0,13.0,-999,-99.99,,,-99.99,,2013-01-23 05:33:00,